createdAt,value
2022-09-15T00:00:59.743Z,64.3
2022-09-15T00:06:38.216Z,64.3
2022-09-15T00:12:00.082Z,64.2
2022-09-15T00:17:39.572Z,64.1
2022-09-15T00:23:17.132Z,64.1
2022-09-15T00:28:53.819Z,64
2022-09-15T00:34:31.669Z,64
2022-09-15T00:40:09.546Z,63.9
2022-09-15T00:45:46.392Z,63.9
2022-09-15T00:51:47.774Z,63.8
2022-09-15T00:57:24.916Z,63.8
2022-09-15T01:02:46.344Z,63.8
2022-09-15T01:08:09.087Z,63.7
2022-09-15T01:13:46.090Z,63.6
2022-09-15T01:19:22.993Z,63.6
2022-09-15T01:24:33.546Z,63.5
2022-09-15T01:30:23.153Z,63.5
2022-09-15T01:35:59.245Z,63.4
2022-09-15T01:41:37.210Z,63.4
2022-09-15T01:46:59.164Z,63.3
2022-09-15T01:52:36.162Z,63.3
2022-09-15T01:58:13.104Z,63.3
2022-09-15T02:03:50.543Z,63.2
2022-09-15T02:09:11.582Z,63.1
2022-09-15T02:14:49.268Z,63.1
2022-09-15T02:19:24.877Z,63
2022-09-15T02:25:02.117Z,63
2022-09-15T02:30:39.706Z,62.9
2022-09-15T02:36:21.311Z,62.9
2022-09-15T02:41:58.447Z,62.8
2022-09-15T02:47:37.286Z,62.8
2022-09-15T02:53:14.432Z,62.7
2022-09-15T02:58:52.292Z,62.7
2022-09-15T03:04:32.596Z,62.6
2022-09-15T03:09:53.689Z,62.6
2022-09-15T03:15:31.462Z,62.5
2022-09-15T03:20:54.052Z,62.5
2022-09-15T03:26:31.261Z,62.4
2022-09-15T03:32:09.497Z,62.4
2022-09-15T03:37:49.938Z,62.3
2022-09-15T03:43:30.812Z,62.3
2022-09-15T03:49:08.576Z,62.2
2022-09-15T03:54:46.101Z,62.1
2022-09-15T04:00:08.046Z,62.1
2022-09-15T04:05:51.489Z,62
2022-09-15T04:11:28.165Z,61.9
2022-09-15T04:17:10.553Z,61.9
2022-09-15T04:22:51.009Z,61.9
2022-09-15T04:28:28.744Z,61.8
2022-09-15T04:34:08.887Z,61.8
2022-09-15T04:39:46.145Z,61.7
2022-09-15T04:45:23.591Z,61.6
2022-09-15T04:51:01.598Z,61.6
2022-09-15T04:56:40.389Z,61.6
2022-09-15T05:02:18.530Z,61.5
2022-09-15T05:07:56.599Z,61.4
2022-09-15T05:13:37.480Z,61.4
2022-09-15T05:19:16.028Z,61.4
2022-09-15T05:24:59.125Z,61.3
2022-09-15T05:30:52.263Z,61.3
2022-09-15T05:36:15.563Z,61.2
2022-09-15T05:41:53.715Z,61.2
2022-09-15T05:47:30.910Z,61.1
2022-09-15T05:53:08.647Z,61.1
2022-09-15T05:58:46.392Z,61
2022-09-15T06:04:23.085Z,60.9
2022-09-15T06:10:04.520Z,60.9
2022-09-15T06:15:42.213Z,60.9
2022-09-15T06:21:19.437Z,60.8
2022-09-15T06:26:58.875Z,60.8
2022-09-15T06:32:36.345Z,60.7
2022-09-15T06:38:13.820Z,60.6
2022-09-15T06:44:17.495Z,60.6
2022-09-15T06:50:14.455Z,60.6
2022-09-15T06:55:51.265Z,60.5
2022-09-15T07:01:29.287Z,60.4
2022-09-15T07:07:11.161Z,60.4
2022-09-15T07:12:53.049Z,60.3
2022-09-15T07:18:31.842Z,60.3
2022-09-15T07:24:09.617Z,60.3
2022-09-15T07:29:51.236Z,60.2
2022-09-15T07:35:31.459Z,60.1
2022-09-15T07:41:09.707Z,60.1
2022-09-15T07:46:51.045Z,60.1
2022-09-15T07:52:29.064Z,60
2022-09-15T07:57:51.376Z,60
2022-09-15T08:03:29.934Z,59.9
2022-09-15T08:09:16.950Z,59.9
2022-09-15T08:14:59.159Z,59.8
2022-09-15T08:20:21.401Z,59.8
2022-09-15T08:25:43.803Z,59.8
2022-09-15T08:31:06.132Z,59.7
2022-09-15T08:36:43.553Z,59.6
2022-09-15T08:42:21.819Z,59.6
2022-09-15T08:48:05.825Z,59.8
2022-09-15T08:54:06.731Z,60
2022-09-15T08:59:46.998Z,60.2
2022-09-15T09:05:25.714Z,60.4
2022-09-15T09:10:47.794Z,60.6
2022-09-15T09:16:11.195Z,60.8
2022-09-15T09:21:50.310Z,61.2
2022-09-15T09:27:50.180Z,61.5
2022-09-15T09:33:13.535Z,61.8
2022-09-15T09:38:36.609Z,61.9
2022-09-15T09:44:14.622Z,62.3
2022-09-15T09:49:53.637Z,62.5
2022-09-15T09:55:31.361Z,62.9
2022-09-15T10:01:08.831Z,63.2
2022-09-15T10:06:48.003Z,63.4
2022-09-15T10:12:25.929Z,63.7
2022-09-15T10:18:03.857Z,64
2022-09-15T10:23:43.308Z,64.3
2022-09-15T10:29:09.446Z,64.6
2022-09-15T10:34:32.431Z,64.9
2022-09-15T10:40:11.143Z,65.4
2022-09-15T10:45:49.413Z,65.8
2022-09-15T10:51:27.648Z,66.3
2022-09-15T10:57:29.095Z,66.6
2022-09-15T11:03:07.699Z,66.7
2022-09-15T11:08:47.184Z,66.7
2022-09-15T11:14:30.676Z,66.6
2022-09-15T11:20:09.263Z,66.6
2022-09-15T11:25:47.221Z,66.6
2022-09-15T11:31:25.417Z,66.6
2022-09-15T11:37:03.825Z,66.6
2022-09-15T11:42:45.567Z,66.5
2022-09-15T11:48:23.610Z,66.7
2022-09-15T11:54:01.065Z,66.8
2022-09-15T11:59:44.530Z,66.9
2022-09-15T12:05:22.848Z,67.2
2022-09-15T12:10:44.994Z,67.4
2022-09-15T12:16:28.544Z,67.4
2022-09-15T12:22:32.918Z,67.6
2022-09-15T12:28:10.546Z,67.8
2022-09-15T12:33:51.624Z,67.9
2022-09-15T12:39:29.908Z,68
2022-09-15T12:44:52.695Z,68.1
2022-09-15T12:50:30.706Z,68.3
2022-09-15T12:56:09.883Z,68.2
2022-09-15T13:02:13.371Z,68.2
2022-09-15T13:07:57.203Z,68.3
2022-09-15T13:13:35.461Z,68.4
2022-09-15T13:19:13.828Z,68.4
2022-09-15T13:24:51.729Z,68.3
2022-09-15T13:30:32.936Z,68.4
2022-09-15T13:39:00.707Z,68.4
2022-09-15T13:44:43.440Z,68.3
2022-09-15T13:50:21.431Z,68.3
2022-09-15T13:55:59.377Z,68.3
2022-09-15T14:03:23.413Z,68.2
2022-09-15T14:09:06.770Z,68.2
2022-09-15T14:14:44.341Z,68.1
2022-09-15T14:20:28.417Z,68.1
2022-09-15T14:26:10.790Z,68
2022-09-15T14:31:51.828Z,67.9
2022-09-15T14:37:37.792Z,67.9
2022-09-15T14:43:19.299Z,67.9
